Moscow, North Dakota
Current Conditions -  °F | °C
As of 2:55 PM on Tuesday 21 Oct 2014 (Local Time) from KD55 Reporting Station
Clear Clear  
Wind Chill: 64°   Ceiling: Unl
Heat Index: 64°   Visibility: 10mi
Dew Point: 39°   Wind: 31mph
Humidity: 40%   Direction: 160°SSE
Pressure: 29.8"   Gusts: 38mph
Location:  48.6307°N, 98.5917°W
Report Text: KD55 211955Z AUTO 16027G33KT 10SM CLR 18/04 A2980 RMK AO2
Loading
Personal Weather Stations






























Interactive Weather Map
Tropical Storm Tracking
New forecast layout! Learn more

10-Day Weather Forecast

Advertisements
Track Severe Weather on mobile